North Canaan, Connecticut
Current Conditions -  °F | °C
As of 10:12 PM on Saturday 22 Nov 2014 (Local Time) from KPSF Reporting Station
Light Rain Light Rain  
Wind Chill: 26°   Ceiling: 6000
Heat Index: 34°   Visibility: 8mi
Dew Point: 26°   Wind: 10mph
Humidity: 73%   Direction: 230°SW
Pressure: 30.05"   Gusts: NA
Location:  42.0294°N, 73.3073°W
Report Text: KPSF 230312Z AUTO 23009KT 8SM -RA SCT030 BKN060 OVC080 01/M03 A3005 RMK AO2 UPB0259E04RAB04 P0000 T00111033 $
Loading
Personal Weather Stations






























Interactive Weather Map New forecast layout! Learn more

10-Day Weather Forecast

Advertisements
Track Severe Weather on mobile